Time;durP1;ratioP1;P1;durP2;ratioP2;P2;SDS_P1;SDS_P2;PMS_P1;PMS_P2;Temp;Humidity;BMP_temperature;BMP_pressure;BME280_temperature;BME280_humidity;BME280_pressure;Samples;Min_cycle;Max_cycle;Signal;HPM_P1;HPM_P2
2022/09/14 00:00:32;;;;;;;10.60;9.60;;;;;;;15.11;79.13;98881.35;215832;1276;140655;-67
2022/09/14 00:05:54;;;;;;;11.50;9.40;;;;;;;15.06;78.67;98873.67;215257;1276;141407;-67
2022/09/14 00:11:12;;;;;;;11.70;9.70;;;;;;;15.01;78.61;98871.41;215805;1276;141338;-66
2022/09/14 00:16:38;;;;;;;11.10;8.70;;;;;;;14.94;78.52;98863.24;214672;1276;142414;-68
2022/09/14 00:21:44;;;;;;;13.00;11.10;;;;;;;14.86;78.51;98865.58;214331;1277;141568;-65
2022/09/14 00:26:47;;;;;;;10.40;9.20;;;;;;;14.80;78.64;98862.03;214394;1276;141453;-68
2022/09/14 00:31:50;;;;;;;12.60;10.10;;;;;;;14.69;78.36;98861.80;214187;1276;141347;-66
2022/09/14 00:36:53;;;;;;;11.80;9.80;;;;;;;14.57;78.38;98854.38;212887;1276;144013;-66
2022/09/14 00:41:56;;;;;;;11.00;9.10;;;;;;;14.47;78.68;98852.45;213719;1276;142294;-68
2022/09/14 00:47:01;;;;;;;11.80;9.90;;;;;;;14.39;78.73;98845.48;213225;1276;141950;-66
2022/09/14 00:52:10;;;;;;;13.60;9.70;;;;;;;14.37;78.94;98844.58;213446;1276;140862;-66
2022/09/14 00:57:14;;;;;;;15.60;11.50;;;;;;;14.33;79.11;98845.38;213473;1276;141013;-66
2022/09/14 01:02:20;;;;;;;13.70;11.00;;;;;;;14.34;79.73;98843.82;214083;1276;142008;-66
2022/09/14 01:07:42;;;;;;;13.50;11.10;;;;;;;14.31;79.64;98846.89;213570;1276;140601;-66
2022/09/14 01:13:27;;;;;;;18.00;13.60;;;;;;;14.32;79.75;98844.27;214394;1276;141289;-67
2022/09/14 01:18:37;;;;;;;14.10;12.40;;;;;;;14.32;80.14;98840.13;213477;1275;141353;-66
2022/09/14 01:23:54;;;;;;;14.20;12.50;;;;;;;14.35;80.43;98837.05;213153;1276;140604;-66
2022/09/14 01:29:15;;;;;;;17.40;15.10;;;;;;;14.35;80.49;98839.84;214467;1276;161783;-66
2022/09/14 01:34:28;;;;;;;14.40;12.70;;;;;;;14.39;80.57;98835.13;213126;1276;140699;-66
2022/09/14 01:39:34;;;;;;;17.80;12.70;;;;;;;14.43;80.93;98833.08;214662;1276;140727;-67
2022/09/14 01:44:45;;;;;;;16.40;13.00;;;;;;;14.43;80.72;98835.76;213217;1276;141544;-67
2022/09/14 01:49:53;;;;;;;16.50;13.10;;;;;;;14.40;80.53;98829.65;213479;1276;141963;-67
2022/09/14 01:55:17;;;;;;;17.00;13.70;;;;;;;14.40;80.88;98828.04;215722;1276;140637;-68
2022/09/14 02:00:24;;;;;;;19.00;15.90;;;;;;;14.47;81.32;98817.92;215758;1276;140619;-68
2022/09/14 02:05:38;;;;;;;18.90;15.90;;;;;;;14.55;81.38;98816.30;215769;1277;141554;-68
2022/09/14 02:10:42;;;;;;;16.70;14.50;;;;;;;14.63;81.39;98809.96;215618;1276;151853;-67
2022/09/14 02:15:45;;;;;;;16.20;13.10;;;;;;;14.60;81.34;98811.38;215402;1275;235175;-67
2022/09/14 02:21:01;;;;;;;18.60;13.80;;;;;;;14.60;81.32;98806.92;213303;1276;142025;-66
2022/09/14 02:26:05;;;;;;;16.60;13.50;;;;;;;14.57;81.22;98802.55;213222;1276;141718;-66
2022/09/14 02:31:22;;;;;;;15.50;12.30;;;;;;;14.48;81.23;98797.48;214256;1277;141672;-67
2022/09/14 02:36:37;;;;;;;15.60;13.60;;;;;;;14.41;81.30;98789.54;213476;1276;142489;-67
2022/09/14 02:41:53;;;;;;;17.30;14.10;;;;;;;14.32;81.62;98786.35;213052;1276;142391;-67
2022/09/14 02:47:11;;;;;;;18.70;14.60;;;;;;;14.30;81.72;98778.65;213199;1276;141607;-66
2022/09/14 02:52:34;;;;;;;19.40;14.20;;;;;;;14.25;81.93;98781.22;213157;1277;141225;-67
2022/09/14 02:58:03;;;;;;;21.50;14.90;;;;;;;14.22;82.10;98777.33;213389;1277;141476;-66
2022/09/14 03:03:08;;;;;;;9.80;8.20;;;;;;;14.17;82.22;98771.03;212903;1276;141504;-66
2022/09/14 03:08:11;;;;;;;18.40;14.30;;;;;;;14.08;82.04;98765.70;214832;1277;140180;-67
2022/09/14 03:13:14;;;;;;;18.00;14.50;;;;;;;14.07;82.67;98764.20;214224;1276;140670;-65
2022/09/14 03:18:18;;;;;;;15.60;13.20;;;;;;;14.13;82.55;98760.60;214147;1276;141708;-66
2022/09/14 03:23:20;;;;;;;17.80;13.80;;;;;;;14.23;82.68;98759.46;213891;1275;141122;-66
2022/09/14 03:28:22;;;;;;;19.00;13.50;;;;;;;14.33;82.91;98759.92;214708;1276;141395;-67
2022/09/14 03:33:24;;;;;;;21.10;14.60;;;;;;;14.39;82.82;98762.31;213817;1276;140312;-65
2022/09/14 03:38:28;;;;;;;16.20;13.80;;;;;;;14.42;82.88;98765.90;213381;1276;139856;-66
2022/09/14 03:43:32;;;;;;;17.20;14.10;;;;;;;14.47;82.98;98764.51;214773;1276;140660;-65
2022/09/14 03:48:34;;;;;;;16.00;12.70;;;;;;;14.56;82.97;98765.45;215305;1273;141158;-66
2022/09/14 03:53:37;;;;;;;15.50;13.30;;;;;;;14.58;82.53;98765.96;213665;1276;140969;-66
2022/09/14 03:58:43;;;;;;;18.20;13.90;;;;;;;14.61;82.75;98765.71;215970;1276;140334;-66
2022/09/14 04:03:47;;;;;;;17.30;14.00;;;;;;;14.59;82.65;98766.06;215844;1276;143381;-67
2022/09/14 04:08:50;;;;;;;16.50;14.00;;;;;;;14.69;83.01;98766.33;215809;1276;141375;-69
2022/09/14 04:13:52;;;;;;;13.00;11.40;;;;;;;14.79;82.98;98766.48;215794;1276;141135;-68
2022/09/14 04:18:54;;;;;;;15.50;12.10;;;;;;;14.71;82.55;98765.75;214774;1276;140282;-67
2022/09/14 04:23:57;;;;;;;16.70;14.50;;;;;;;14.64;82.71;98761.30;214056;1276;139977;-67
2022/09/14 04:29:18;;;;;;;17.90;14.50;;;;;;;14.70;83.14;98765.13;214326;1276;140829;-66
2022/09/14 04:34:20;;;;;;;33.20;17.60;;;;;;;14.78;83.35;98772.11;213566;1276;140811;-66
2022/09/14 04:39:23;;;;;;;23.40;15.90;;;;;;;14.86;83.54;98771.23;213502;1276;141331;-67
2022/09/14 04:44:26;;;;;;;29.00;17.80;;;;;;;14.89;83.28;98771.85;214463;1276;140400;-67
2022/09/14 04:49:31;;;;;;;18.90;13.80;;;;;;;14.88;83.35;98770.04;213747;1276;140438;-66
2022/09/14 04:54:34;;;;;;;30.90;19.30;;;;;;;14.86;83.62;98772.10;214676;1276;141205;-66
2022/09/14 04:59:37;;;;;;;34.30;21.70;;;;;;;14.92;83.81;98775.95;215768;1276;140893;-67
2022/09/14 05:04:39;;;;;;;17.80;12.40;;;;;;;14.98;83.90;98776.57;214618;1276;141227;-67
2022/09/14 05:09:42;;;;;;;31.20;20.00;;;;;;;15.04;83.70;98783.46;214040;1276;141441;-67
2022/09/14 05:14:45;;;;;;;47.70;22.00;;;;;;;15.04;83.81;98791.56;213353;1275;140085;-66
2022/09/14 05:19:48;;;;;;;21.20;17.10;;;;;;;15.09;83.74;98787.76;214077;1275;140561;-67
2022/09/14 05:24:50;;;;;;;24.80;17.20;;;;;;;15.10;83.71;98788.23;214273;1276;140728;-69
2022/09/14 05:29:52;;;;;;;31.50;18.80;;;;;;;15.12;83.75;98795.45;214286;1275;141153;-66
2022/09/14 05:34:55;;;;;;;27.60;18.30;;;;;;;15.18;83.67;98789.64;214375;1276;140400;-65
2022/09/14 05:39:58;;;;;;;21.10;16.00;;;;;;;15.24;83.61;98788.45;214727;1276;140976;-67
2022/09/14 05:45:00;;;;;;;30.40;17.80;;;;;;;15.32;83.50;98791.38;215267;1276;141237;-66
2022/09/14 05:50:03;;;;;;;24.30;17.00;;;;;;;15.50;83.41;98788.42;215553;1276;140672;-66
2022/09/14 05:55:06;;;;;;;23.60;16.00;;;;;;;15.63;83.40;98787.06;215940;1276;141315;-67
2022/09/14 06:00:10;;;;;;;23.70;16.20;;;;;;;15.77;82.94;98782.62;215649;1276;140759;-67
2022/09/14 06:05:14;;;;;;;20.10;15.50;;;;;;;15.89;82.38;98791.30;215730;1275;140476;-67
2022/09/14 06:10:17;;;;;;;20.10;15.80;;;;;;;15.95;82.19;98796.26;215313;1276;141426;-69
2022/09/14 06:15:23;;;;;;;14.70;13.10;;;;;;;16.04;82.30;98794.84;214732;1276;140947;-67
2022/09/14 06:20:26;;;;;;;18.20;13.50;;;;;;;16.05;82.01;98800.73;213973;1276;142216;-69
2022/09/14 06:25:29;;;;;;;22.60;14.40;;;;;;;16.08;81.61;98798.49;215167;1275;140496;-68
2022/09/14 06:30:32;;;;;;;17.20;12.60;;;;;;;16.20;81.54;98796.83;214605;1276;140984;-67
2022/09/14 06:35:35;;;;;;;17.80;14.10;;;;;;;16.53;81.41;98795.31;214191;1275;142708;-67
2022/09/14 06:40:38;;;;;;;24.60;14.30;;;;;;;16.79;80.89;98798.40;214360;1276;140775;-66
2022/09/14 06:45:40;;;;;;;24.10;15.00;;;;;;;16.87;80.22;98799.50;213227;1276;141957;-67
2022/09/14 06:50:43;;;;;;;21.10;15.10;;;;;;;17.16;80.43;98796.27;213487;1276;141718;-68
2022/09/14 06:55:46;;;;;;;22.90;15.20;;;;;;;17.45;80.14;98801.59;213450;1276;141120;-69
2022/09/14 07:00:49;;;;;;;13.60;12.10;;;;;;;17.54;79.26;98802.38;213353;1276;143293;-70
2022/09/14 07:05:59;;;;;;;12.30;9.90;;;;;;;17.73;78.67;98809.91;212938;1276;140353;-68
2022/09/14 07:11:04;;;;;;;10.90;9.00;;;;;;;18.26;78.28;98812.05;213718;1276;140370;-69
2022/09/14 07:16:07;;;;;;;18.90;12.40;;;;;;;18.67;77.26;98812.28;213488;1276;140670;-69
2022/09/14 07:21:13;;;;;;;15.40;10.30;;;;;;;18.97;76.80;98812.65;214224;1276;140312;-72
2022/09/14 07:26:19;;;;;;;11.70;10.30;;;;;;;19.56;76.00;98817.90;213821;1276;140884;-67
2022/09/14 07:31:26;;;;;;;14.30;8.40;;;;;;;20.09;74.91;98813.36;213293;1276;140371;-70
2022/09/14 07:36:31;;;;;;;10.30;7.50;;;;;;;20.46;74.06;98805.55;214557;1276;141816;-69
2022/09/14 07:41:38;;;;;;;9.20;7.70;;;;;;;21.15;73.97;98799.03;212979;1276;140081;-67
2022/09/14 07:46:42;;;;;;;9.60;7.20;;;;;;;21.86;72.11;98802.88;213488;1276;139568;-66
2022/09/14 07:51:45;;;;;;;12.20;7.60;;;;;;;22.10;70.68;98806.64;214271;1276;140384;-67
2022/09/14 07:56:49;;;;;;;9.20;7.20;;;;;;;22.15;69.43;98807.99;213921;1276;140162;-71
2022/09/14 08:01:51;;;;;;;9.10;5.10;;;;;;;22.15;68.47;98812.16;215703;1276;139854;-69
2022/09/14 08:06:53;;;;;;;7.40;6.10;;;;;;;22.22;67.40;98817.68;215699;1276;139826;-73
2022/09/14 08:11:56;;;;;;;6.50;5.50;;;;;;;22.11;66.57;98812.49;215646;1276;139812;-67
2022/09/14 08:16:59;;;;;;;6.30;5.00;;;;;;;22.13;65.90;98812.23;215802;1276;139885;-70
2022/09/14 08:22:03;;;;;;;8.00;5.10;;;;;;;21.88;64.74;98813.56;214140;1276;139483;-70
2022/09/14 08:27:06;;;;;;;7.80;6.20;;;;;;;21.62;64.73;98815.62;213465;1276;139957;-66
2022/09/14 08:32:11;;;;;;;5.20;4.10;;;;;;;21.29;63.81;98814.34;212982;1276;139433;-70
2022/09/14 08:37:14;;;;;;;9.90;5.50;;;;;;;21.04;64.05;98813.63;213020;1275;140694;-69
2022/09/14 08:42:19;;;;;;;5.10;4.40;;;;;;;21.03;64.14;98814.20;214555;1276;140311;-71
2022/09/14 08:47:37;;;;;;;9.30;5.20;;;;;;;20.90;63.60;98815.52;214427;1276;140552;-68
2022/09/14 08:52:54;;;;;;;9.90;4.20;;;;;;;20.99;64.18;98808.39;213898;1276;140053;-69
2022/09/14 08:58:29;;;;;;;10.00;4.90;;;;;;;21.03;63.55;98809.48;213889;1276;139626;-71
2022/09/14 09:03:38;;;;;;;6.00;4.00;;;;;;;21.02;63.39;98815.01;213220;1276;139661;-71
2022/09/14 09:08:43;;;;;;;6.20;3.90;;;;;;;20.99;62.71;98816.35;214005;1276;139951;-70
2022/09/14 09:13:52;;;;;;;5.60;3.70;;;;;;;20.91;62.46;98812.69;212824;1277;139725;-67
2022/09/14 09:19:00;;;;;;;6.30;4.50;;;;;;;20.99;62.67;98812.48;213381;1276;139386;-69
2022/09/14 09:24:16;;;;;;;4.30;3.10;;;;;;;21.32;62.61;98809.39;213750;1276;139734;-71
2022/09/14 09:29:19;;;;;;;4.60;3.00;;;;;;;21.55;62.27;98798.74;213766;1274;139428;-73
2022/09/14 09:34:27;;;;;;;4.30;2.60;;;;;;;21.81;61.93;98795.77;214772;1276;139867;-71
2022/09/14 09:39:31;;;;;;;2.80;2.50;;;;;;;22.08;61.73;98790.05;213800;1276;140025;-71
2022/09/14 09:44:56;;;;;;;8.00;2.10;;;;;;;22.06;60.75;98798.27;215006;1275;139488;-70
2022/09/14 09:50:25;;;;;;;2.40;2.10;;;;;;;22.00;60.32;98797.10;215375;1275;142458;-72
2022/09/14 09:55:37;;;;;;;6.60;3.00;;;;;;;22.25;60.19;98797.61;212921;1276;2439211;-70
2022/09/14 10:00:39;;;;;;;2.30;1.80;;;;;;;22.47;59.52;98804.98;215218;1276;140919;-71
2022/09/14 10:05:42;;;;;;;2.60;1.40;;;;;;;22.57;58.92;98801.14;215937;1276;140365;-71
2022/09/14 10:10:44;;;;;;;4.30;1.50;;;;;;;22.49;58.07;98805.98;215893;1276;140978;-71
2022/09/14 10:15:48;;;;;;;3.10;1.90;;;;;;;21.98;57.48;98809.73;214593;1275;142482;-69
2022/09/14 10:20:52;;;;;;;4.80;1.60;;;;;;;21.66;57.81;98811.25;214541;1276;140684;-66
2022/09/14 10:26:12;;;;;;;2.10;1.00;;;;;;;21.83;58.36;98805.63;215344;1276;139836;-68
2022/09/14 10:31:17;;;;;;;6.50;1.30;;;;;;;22.09;58.17;98813.25;213195;1276;142617;-69
2022/09/14 10:36:30;;;;;;;1.00;0.80;;;;;;;22.49;58.30;98806.45;212900;1276;141226;-69
2022/09/14 10:41:56;;;;;;;1.30;1.20;;;;;;;22.91;57.66;98806.56;213586;1276;140807;-70
2022/09/14 10:47:39;;;;;;;1.10;0.80;;;;;;;23.20;56.71;98801.06;213104;1276;140820;-70
2022/09/14 10:53:02;;;;;;;2.20;1.20;;;;;;;23.40;55.84;98811.77;214670;1276;151516;-68
2022/09/14 10:58:27;;;;;;;3.10;1.60;;;;;;;23.44;54.97;98808.46;212891;1276;139509;-70
2022/09/14 11:03:38;;;;;;;1.50;1.20;;;;;;;23.11;54.84;98805.88;213871;1276;139451;-67
2022/09/14 11:08:55;;;;;;;3.70;1.10;;;;;;;23.08;54.70;98801.98;213785;1276;141151;-67
2022/09/14 11:14:24;;;;;;;3.30;1.20;;;;;;;23.15;54.42;98795.52;213693;1276;140289;-69
2022/09/14 11:19:53;;;;;;;3.60;1.10;;;;;;;22.82;53.58;98792.04;214191;1276;140046;-70
2022/09/14 11:25:12;;;;;;;1.80;1.10;;;;;;;22.45;53.66;98789.08;214644;1275;140563;-70
2022/09/14 11:30:21;;;;;;;0.80;0.80;;;;;;;22.44;53.99;98787.59;213955;1276;139739;-70
2022/09/14 11:35:44;;;;;;;7.40;1.40;;;;;;;22.67;54.07;98788.80;213022;1276;140088;-68
2022/09/14 11:40:56;;;;;;;1.60;0.90;;;;;;;22.68;53.57;98778.68;215725;1276;141430;-71
2022/09/14 11:46:09;;;;;;;2.80;1.60;;;;;;;22.64;53.50;98773.59;213704;1276;141532;-71
2022/09/14 11:51:35;;;;;;;1.70;1.00;;;;;;;22.59;52.99;98772.33;213872;1277;139880;-69
2022/09/14 11:56:38;;;;;;;0.80;0.80;;;;;;;22.50;53.00;98772.89;215798;1276;139834;-70
2022/09/14 12:01:42;;;;;;;1.60;1.10;;;;;;;22.48;53.28;98755.91;215902;1276;140060;-69
2022/09/14 12:06:53;;;;;;;4.10;1.50;;;;;;;22.67;53.58;98757.06;214712;1276;140053;-69
2022/09/14 12:12:02;;;;;;;1.40;1.20;;;;;;;22.76;53.17;98749.00;214209;1276;140193;-69
2022/09/14 12:17:20;;;;;;;4.00;1.50;;;;;;;22.83;53.05;98749.95;214029;1276;139695;-69
2022/09/14 12:22:43;;;;;;;1.90;1.20;;;;;;;22.85;52.78;98752.80;213482;1276;139905;-68
2022/09/14 12:27:52;;;;;;;4.10;1.50;;;;;;;22.68;52.96;98747.88;213463;1276;139978;-68
2022/09/14 12:32:55;;;;;;;5.40;1.60;;;;;;;22.62;52.59;98748.30;213983;1276;139901;-66
2022/09/14 12:38:18;;;;;;;1.60;1.20;;;;;;;22.54;52.52;98746.78;213464;1276;140280;-67
2022/09/14 12:43:31;;;;;;;1.60;1.20;;;;;;;22.26;52.55;98744.14;213964;1275;141384;-66
2022/09/14 12:48:47;;;;;;;4.70;1.90;;;;;;;21.89;52.56;98744.20;214064;1276;141645;-67
2022/09/14 12:54:02;;;;;;;1.10;1.00;;;;;;;21.63;52.90;98750.09;213290;1276;141400;-68
2022/09/14 12:59:28;;;;;;;4.50;1.40;;;;;;;21.53;53.73;98741.11;213447;1276;142848;-67
2022/09/14 13:04:33;;;;;;;2.10;0.80;;;;;;;21.54;53.82;98737.95;213253;1276;140896;-72
2022/09/14 13:09:36;;;;;;;1.60;1.30;;;;;;;21.48;53.81;98732.19;214034;1276;139294;-72
2022/09/14 13:14:53;;;;;;;4.70;1.10;;;;;;;21.42;53.62;98733.27;213845;1275;140004;-68
2022/09/14 13:20:05;;;;;;;5.70;1.40;;;;;;;21.31;53.69;98729.92;213319;1276;140415;-68
2022/09/14 13:25:33;;;;;;;1.80;0.90;;;;;;;21.29;54.10;98730.91;214084;1276;141540;-69
2022/09/14 13:30:36;;;;;;;2.20;1.40;;;;;;;21.22;53.91;98722.96;213423;1276;140287;-69
2022/09/14 13:35:47;;;;;;;4.80;1.80;;;;;;;21.20;54.43;98721.81;214353;1276;140235;-68
2022/09/14 13:40:55;;;;;;;4.40;1.50;;;;;;;21.41;54.72;98719.83;214195;1276;140447;-68
2022/09/14 13:45:59;;;;;;;1.70;1.60;;;;;;;21.52;54.39;98713.11;214813;1276;140953;-69
2022/09/14 13:51:05;;;;;;;5.20;1.80;;;;;;;21.63;54.72;98706.36;216211;1275;140845;-69
2022/09/14 13:56:22;;;;;;;2.50;1.60;;;;;;;21.49;54.50;98699.90;216048;1276;141382;-69
2022/09/14 14:01:29;;;;;;;5.20;2.80;;;;;;;21.19;54.50;98698.52;216066;1276;140977;-69
2022/09/14 14:06:36;;;;;;;2.60;1.50;;;;;;;20.88;54.70;98700.67;216044;1276;140956;-68
2022/09/14 14:11:53;;;;;;;1.40;1.20;;;;;;;20.67;55.29;98700.54;215385;1275;141440;-67
2022/09/14 14:17:23;;;;;;;1.60;1.50;;;;;;;20.56;55.86;98699.44;214329;1276;142696;-68
2022/09/14 14:22:33;;;;;;;4.50;1.70;;;;;;;20.48;56.17;98691.89;212959;1276;141772;-66
2022/09/14 14:27:42;;;;;;;2.30;1.60;;;;;;;20.45;56.35;98685.80;212933;1275;140178;-69
2022/09/14 14:32:56;;;;;;;4.00;1.60;;;;;;;20.46;56.75;98684.69;213774;1276;140476;-68
2022/09/14 14:37:58;;;;;;;5.00;2.10;;;;;;;20.44;57.20;98685.94;213377;1276;141758;-66
2022/09/14 14:43:03;;;;;;;2.90;1.80;;;;;;;20.36;57.07;98679.30;212970;1276;140445;-70
2022/09/14 14:48:09;;;;;;;2.10;1.80;;;;;;;20.20;57.12;98675.45;213379;1276;140345;-66
2022/09/14 14:53:12;;;;;;;2.90;2.20;;;;;;;20.08;57.41;98669.31;213039;1276;141399;-65
2022/09/14 14:58:17;;;;;;;3.30;2.40;;;;;;;20.08;57.63;98662.89;213302;1276;142145;-70
2022/09/14 15:03:20;;;;;;;3.70;2.20;;;;;;;20.09;57.73;98659.80;213397;1276;140935;-68
2022/09/14 15:08:23;;;;;;;1.50;1.40;;;;;;;20.07;57.97;98658.91;213183;1277;141599;-68
2022/09/14 15:13:27;;;;;;;3.30;2.10;;;;;;;20.12;58.22;98657.14;213694;1276;141194;-68
2022/09/14 15:18:29;;;;;;;2.10;1.10;;;;;;;20.14;57.95;98645.01;213200;1276;140995;-65
2022/09/14 15:23:31;;;;;;;2.20;1.70;;;;;;;20.01;57.98;98645.75;215001;1276;141314;-66
2022/09/14 15:28:37;;;;;;;5.10;2.20;;;;;;;19.85;57.99;98645.79;215261;1276;140185;-66
2022/09/14 15:33:40;;;;;;;4.80;2.10;;;;;;;19.83;58.31;98648.73;213232;1276;140411;-67
2022/09/14 15:38:43;;;;;;;2.80;1.60;;;;;;;19.77;58.28;98651.70;213566;1276;140717;-68
2022/09/14 15:43:46;;;;;;;4.40;1.80;;;;;;;19.66;58.63;98642.59;214719;1276;140966;-70
2022/09/14 15:48:48;;;;;;;2.20;1.80;;;;;;;19.61;58.94;98647.52;215914;1276;139901;-66
2022/09/14 15:53:51;;;;;;;6.50;1.70;;;;;;;19.57;58.97;98636.84;215682;1275;140095;-66
2022/09/14 15:58:59;;;;;;;4.90;1.70;;;;;;;19.50;59.14;98632.68;215143;1276;140735;-68
2022/09/14 16:04:05;;;;;;;2.20;1.60;;;;;;;19.38;59.58;98639.53;215733;1276;142242;-69
2022/09/14 16:09:16;;;;;;;1.70;1.60;;;;;;;19.20;59.73;98632.89;214723;1276;142272;-68
2022/09/14 16:14:18;;;;;;;3.80;1.70;;;;;;;19.08;60.17;98636.13;213153;1276;141600;-68
2022/09/14 16:19:21;;;;;;;4.00;2.00;;;;;;;19.00;61.07;98631.83;214350;1276;141149;-67
2022/09/14 16:24:25;;;;;;;2.90;1.80;;;;;;;18.92;61.82;98632.11;214262;1276;142157;-66
2022/09/14 16:29:28;;;;;;;2.50;2.00;;;;;;;18.86;62.55;98630.48;212910;1276;141710;-68
2022/09/14 16:34:30;;;;;;;4.70;1.70;;;;;;;18.67;62.85;98621.98;213979;1276;140124;-69
2022/09/14 16:39:34;;;;;;;7.10;2.50;;;;;;;18.58;63.60;98623.59;212691;1276;142553;-68
2022/09/14 16:44:36;;;;;;;8.00;2.40;;;;;;;18.47;64.08;98611.73;213577;1276;140963;-68
2022/09/14 16:49:39;;;;;;;2.00;1.90;;;;;;;18.34;64.67;98611.45;212563;1276;140308;-68
2022/09/14 16:54:42;;;;;;;5.70;1.80;;;;;;;18.23;65.21;98609.06;213093;1276;151652;-69
2022/09/14 16:59:45;;;;;;;8.60;2.40;;;;;;;18.09;65.58;98610.52;214729;1276;139810;-68
2022/09/14 17:04:47;;;;;;;5.70;2.40;;;;;;;17.84;65.61;98607.75;214775;1276;150380;-70
2022/09/14 17:09:51;;;;;;;4.70;1.90;;;;;;;17.60;66.24;98614.75;213575;1276;139552;-69
2022/09/14 17:14:54;;;;;;;5.60;2.00;;;;;;;17.52;66.85;98612.35;214101;1276;140104;-66
2022/09/14 17:19:57;;;;;;;3.80;1.80;;;;;;;17.47;67.07;98608.86;212692;1276;140372;-67
2022/09/14 17:24:59;;;;;;;3.70;2.60;;;;;;;17.36;67.50;98603.45;212903;1276;139737;-67
2022/09/14 17:30:02;;;;;;;2.30;2.10;;;;;;;17.20;67.88;98606.38;214746;1276;140027;-67
2022/09/14 17:35:05;;;;;;;2.60;1.70;;;;;;;17.16;68.39;98614.77;215063;1276;141357;-67
2022/09/14 17:40:09;;;;;;;2.50;2.30;;;;;;;17.01;68.46;98617.11;214304;1277;140142;-65
2022/09/14 17:45:12;;;;;;;3.60;2.20;;;;;;;16.96;69.06;98620.52;215825;1276;139876;-67
2022/09/14 17:50:15;;;;;;;2.70;1.70;;;;;;;16.91;69.18;98619.33;215679;1276;141950;-65
2022/09/14 17:55:18;;;;;;;1.70;1.50;;;;;;;16.90;69.41;98625.87;215171;1276;141479;-65
2022/09/14 18:00:21;;;;;;;2.20;1.80;;;;;;;16.90;69.83;98625.02;214764;1276;152860;-66
2022/09/14 18:05:24;;;;;;;6.00;2.10;;;;;;;16.86;69.99;98618.83;215293;1276;140326;-64
2022/09/14 18:10:28;;;;;;;10.00;2.50;;;;;;;16.82;70.13;98617.91;214388;1277;139508;-64
2022/09/14 18:15:31;;;;;;;2.30;1.60;;;;;;;16.76;70.46;98615.85;214300;1277;141037;-66
2022/09/14 18:20:40;;;;;;;10.20;2.90;;;;;;;16.69;70.54;98606.74;213326;1277;144634;-66
2022/09/14 18:25:44;;;;;;;3.40;1.60;;;;;;;16.66;70.87;98601.84;213481;1276;141397;-66
2022/09/14 18:30:48;;;;;;;6.00;2.40;;;;;;;16.66;71.18;98593.52;213313;1276;140208;-65
2022/09/14 18:35:52;;;;;;;2.60;2.40;;;;;;;16.61;71.37;98592.61;213628;1277;139809;-66
2022/09/14 18:41:08;;;;;;;3.00;2.50;;;;;;;16.44;71.53;98586.19;213476;1276;139667;-66
2022/09/14 18:46:14;;;;;;;3.70;2.60;;;;;;;16.28;71.65;98591.09;213098;1277;139858;-65
2022/09/14 18:51:26;;;;;;;6.30;2.60;;;;;;;16.27;72.07;98582.66;213277;1277;142044;-64
2022/09/14 18:56:34;;;;;;;3.70;2.80;;;;;;;16.16;71.97;98576.91;213841;1276;140057;-65
2022/09/14 19:01:41;;;;;;;8.10;3.60;;;;;;;16.02;72.38;98574.98;213333;1277;140693;-65
2022/09/14 19:06:44;;;;;;;2.70;2.50;;;;;;;15.97;72.81;98580.83;213591;1277;139574;-66
2022/09/14 19:11:52;;;;;;;5.00;3.10;;;;;;;15.96;73.02;98576.86;214002;1277;140601;-66
2022/09/14 19:16:57;;;;;;;4.10;2.70;;;;;;;15.88;73.26;98570.98;213276;1277;140981;-67
2022/09/14 19:22:01;;;;;;;5.40;3.70;;;;;;;15.91;73.63;98557.23;213968;1277;140200;-65
2022/09/14 19:27:06;;;;;;;3.70;3.20;;;;;;;15.97;73.94;98558.95;214775;1277;141466;-65
2022/09/14 19:32:10;;;;;;;3.30;3.00;;;;;;;16.01;73.90;98557.48;214749;1277;139975;-64
2022/09/14 19:37:13;;;;;;;6.70;3.40;;;;;;;16.00;73.94;98550.30;215988;1276;140455;-65
2022/09/14 19:42:16;;;;;;;6.40;3.80;;;;;;;15.99;73.92;98551.29;215881;1277;140364;-65
2022/09/14 19:47:23;;;;;;;6.60;3.50;;;;;;;16.01;74.15;98553.79;214963;1276;142061;-64
2022/09/14 19:52:27;;;;;;;6.30;4.80;;;;;;;16.01;74.18;98555.02;215764;1276;139578;-65
2022/09/14 19:57:31;;;;;;;6.10;4.60;;;;;;;15.95;74.40;98557.59;215697;1276;139956;-65
2022/09/14 20:02:34;;;;;;;9.70;4.30;;;;;;;15.89;74.48;98557.12;214475;1276;139840;-65
2022/09/14 20:07:38;;;;;;;7.10;5.90;;;;;;;15.82;74.73;98552.65;215047;1276;141734;-66
2022/09/14 20:12:40;;;;;;;6.90;5.20;;;;;;;15.82;75.15;98546.14;213383;1277;140906;-65
2022/09/14 20:17:46;;;;;;;14.50;6.10;;;;;;;15.88;75.38;98540.02;213183;1277;142014;-65
2022/09/14 20:22:49;;;;;;;8.90;6.40;;;;;;;15.82;75.37;98543.30;215185;1276;142112;-66
2022/09/14 20:27:52;;;;;;;7.10;6.00;;;;;;;15.78;75.69;98541.16;213120;1276;140814;-65
2022/09/14 20:32:55;;;;;;;8.60;6.40;;;;;;;15.84;75.93;98545.79;212873;1277;141811;-63
2022/09/14 20:37:58;;;;;;;6.90;6.00;;;;;;;15.91;76.11;98547.52;213708;1276;141466;-65
2022/09/14 20:43:01;;;;;;;10.10;6.70;;;;;;;15.97;76.30;98543.64;213192;1277;151825;-63
2022/09/14 20:48:04;;;;;;;10.20;6.60;;;;;;;16.03;76.49;98538.16;213057;1276;141797;-64
2022/09/14 20:53:07;;;;;;;7.20;6.00;;;;;;;16.11;76.55;98535.95;214584;1276;141184;-64
2022/09/14 20:58:09;;;;;;;8.70;6.40;;;;;;;16.08;76.30;98536.82;213099;1276;140472;-65
2022/09/14 21:03:14;;;;;;;9.60;6.70;;;;;;;16.06;76.52;98533.89;213240;1276;141751;-64
2022/09/14 21:08:20;;;;;;;10.20;6.50;;;;;;;16.06;76.67;98531.48;214600;1275;142072;-65
2022/09/14 21:13:23;;;;;;;9.70;6.40;;;;;;;16.11;76.74;98530.25;213070;1276;144633;-67
2022/09/14 21:18:26;;;;;;;11.40;8.40;;;;;;;16.16;76.80;98533.23;213258;1276;141384;-64
2022/09/14 21:23:29;;;;;;;9.50;6.50;;;;;;;16.22;76.93;98536.58;215017;1276;143276;-65
2022/09/14 21:28:33;;;;;;;10.40;7.50;;;;;;;16.28;77.17;98530.48;213386;1276;140553;-63
2022/09/14 21:33:37;;;;;;;9.30;6.90;;;;;;;16.33;77.11;98520.47;215807;1276;151512;-66
2022/09/14 21:38:40;;;;;;;7.80;6.10;;;;;;;16.26;76.74;98509.70;215482;1276;141752;-65
2022/09/14 21:43:44;;;;;;;9.50;7.20;;;;;;;16.24;76.95;98505.77;214742;1276;142358;-65
2022/09/14 21:48:48;;;;;;;8.40;5.90;;;;;;;16.30;77.02;98497.15;215689;1276;142195;-65
2022/09/14 21:53:59;;;;;;;8.50;7.20;;;;;;;16.34;77.12;98496.20;213533;1276;1791805;-64
2022/09/14 21:59:07;;;;;;;13.20;7.10;;;;;;;16.33;77.08;98496.65;214204;1277;141477;-65
2022/09/14 22:04:21;;;;;;;7.40;6.60;;;;;;;16.25;76.95;98492.23;215151;1276;141330;-66
2022/09/14 22:09:27;;;;;;;8.50;6.80;;;;;;;16.18;77.22;98486.98;214545;1276;140078;-65
2022/09/14 22:14:33;;;;;;;7.50;6.50;;;;;;;16.16;77.45;98481.64;214044;1276;141225;-64
2022/09/14 22:19:36;;;;;;;7.60;6.20;;;;;;;16.20;77.59;98484.56;213146;1276;141697;-64
2022/09/14 22:24:40;;;;;;;14.60;7.90;;;;;;;16.12;77.69;98483.55;213477;1276;140934;-63
2022/09/14 22:29:43;;;;;;;10.20;7.70;;;;;;;16.04;77.90;98481.85;213291;1276;141175;-65
2022/09/14 22:34:49;;;;;;;9.90;7.70;;;;;;;16.03;78.01;98480.25;213805;1275;141720;-64
2022/09/14 22:39:52;;;;;;;11.20;7.00;;;;;;;15.97;78.02;98480.91;213120;1276;141057;-63
2022/09/14 22:44:56;;;;;;;13.10;7.60;;;;;;;15.87;78.09;98476.92;213330;1275;140813;-64
2022/09/14 22:49:58;;;;;;;14.30;9.00;;;;;;;15.78;78.29;98474.90;213319;1276;154393;-64
2022/09/14 22:55:01;;;;;;;11.40;9.60;;;;;;;15.79;78.71;98471.98;214853;1276;141950;-65
2022/09/14 23:00:06;;;;;;;9.70;8.50;;;;;;;15.92;79.09;98474.19;214603;1276;140875;-65
2022/09/14 23:05:10;;;;;;;11.20;7.80;;;;;;;16.01;79.04;98471.40;213800;1276;141490;-66
2022/09/14 23:10:13;;;;;;;10.80;7.70;;;;;;;16.04;79.05;98471.35;213965;1276;142562;-66
2022/09/14 23:15:16;;;;;;;9.50;8.50;;;;;;;16.06;78.96;98468.73;214603;1276;141322;-66
2022/09/14 23:20:18;;;;;;;13.70;9.80;;;;;;;16.04;78.81;98466.64;214150;1276;141582;-67